Time;durP1;ratioP1;P1;durP2;ratioP2;P2;SDS_P1;SDS_P2;PMS_P1;PMS_P2;Temp;Humidity;BMP_temperature;BMP_pressure;BME280_temperature;BME280_humidity;BME280_pressure;Samples;Min_cycle;Max_cycle;Signal;HPM_P1;HPM_P2
2022/02/18 00:00:25;;;;;;;25.63;5.20;;;;;;;;;;5025427;28;20022;-83
2022/02/18 00:02:52;;;;;;;20.77;3.88;;;;;;;;;;5033761;28;20029;-82
2022/02/18 00:05:18;;;;;;;22.48;4.25;;;;;;;;;;5020627;28;20026;-80
2022/02/18 00:07:44;;;;;;;32.33;5.20;;;;;;;;;;5026612;28;20097;-81
2022/02/18 00:10:10;;;;;;;24.98;4.53;;;9.80;99.90;;;;;;5022095;28;20038;-82
2022/02/18 00:12:36;;;;;;;24.05;4.20;;;;;;;;;;5026083;28;20342;-79
2022/02/18 00:15:04;;;;;;;24.70;5.10;;;9.70;99.90;;;;;;5033944;28;20025;-84
2022/02/18 00:17:30;;;;;;;22.85;4.32;;;;;;;;;;5023440;28;20036;-80
2022/02/18 00:19:57;;;;;;;23.85;4.28;;;;;;;;;;5025632;28;20043;-79
2022/02/18 00:22:23;;;;;;;19.88;4.75;;;;;;;;;;5020651;28;20435;-82
2022/02/18 00:24:49;;;;;;;23.35;3.88;;;;;;;;;;5023811;28;20057;-83
2022/02/18 00:27:15;;;;;;;22.98;3.55;;;9.60;99.90;;;;;;5020940;28;20427;-82
2022/02/18 00:29:41;;;;;;;23.73;5.07;;;9.60;99.90;;;;;;5028664;28;20037;-83
2022/02/18 00:32:08;;;;;;;19.52;3.70;;;12.00;99.90;;;;;;5031838;28;20048;-83
2022/02/18 00:34:38;;;;;;;20.58;3.78;;;9.60;99.90;;;;;;5019537;28;20076;-84
2022/02/18 00:37:05;;;;;;;18.95;3.97;;;9.60;99.90;;;;;;5025812;28;20022;-83
2022/02/18 00:39:32;;;;;;;27.90;4.57;;;;;;;;;;5025275;28;20097;-81
2022/02/18 00:41:58;;;;;;;25.05;5.38;;;9.60;99.90;;;;;;5021902;28;20037;-83
2022/02/18 00:44:24;;;;;;;22.45;4.18;;;9.60;99.90;;;;;;5025405;28;20050;-81
2022/02/18 00:46:50;;;;;;;22.92;3.85;;;11.20;99.90;;;;;;5020536;28;20125;-83
2022/02/18 00:49:21;;;;;;;26.67;3.88;;;9.60;99.90;;;;;;5025130;28;20030;-83
2022/02/18 00:51:47;;;;;;;21.27;4.32;;;9.60;99.90;;;;;;5028243;28;20120;-82
2022/02/18 00:54:13;;;;;;;19.15;3.50;;;;;;;;;;5020165;28;23914;-80
2022/02/18 00:56:40;;;;;;;20.15;3.25;;;;;;;;;;5021648;28;20030;-80
2022/02/18 00:59:09;;;;;;;25.85;4.28;;;9.50;99.90;;;;;;5023849;28;20037;-80
2022/02/18 01:01:39;;;;;;;22.50;3.78;;;9.50;99.90;;;;;;5026463;28;20049;-81
2022/02/18 01:04:05;;;;;;;26.35;4.28;;;;;;;;;;5041929;28;20056;-81
2022/02/18 01:06:31;;;;;;;18.67;3.60;;;;;;;;;;5023232;28;20090;-80
2022/02/18 01:08:58;;;;;;;20.00;3.60;;;;;;;;;;5028144;28;20030;-79
2022/02/18 01:11:24;;;;;;;19.70;4.05;;;9.40;99.90;;;;;;5022341;28;20021;-79
2022/02/18 01:13:50;;;;;;;25.67;4.32;;;;;;;;;;5026694;28;20034;-84
2022/02/18 01:16:34;;;;;;;21.85;4.70;;;9.40;99.90;;;;;;5020397;28;20537;-81
2022/02/18 01:19:00;;;;;;;22.80;4.80;;;;;;;;;;5022212;28;20388;-80
2022/02/18 01:21:26;;;;;;;20.02;3.42;;;;;;;;;;5024838;28;20026;-83
2022/02/18 01:23:55;;;;;;;16.63;4.60;;;9.50;99.90;;;;;;5026404;28;20040;-83
2022/02/18 01:26:21;;;;;;;24.63;4.20;;;;;;;;;;5026091;28;20033;-82
2022/02/18 01:28:47;;;;;;;24.05;3.67;;;;;;;;;;5027302;28;20030;-81
2022/02/18 01:31:13;;;;;;;25.10;4.22;;;;;;;;;;5026946;28;20087;-85
2022/02/18 01:33:39;;;;;;;20.67;4.47;;;;;;;;;;5022945;28;20025;-85
2022/02/18 01:36:05;;;;;;;23.02;4.00;;;;;;;;;;5027219;28;20026;-82
2022/02/18 01:38:31;;;;;;;19.67;3.88;;;;;;;;;;5014047;28;20243;-85
2022/02/18 01:40:57;;;;;;;16.27;3.05;;;;;;;;;;5023468;28;20218;-82
2022/02/18 01:43:23;;;;;;;22.45;3.47;;;9.60;99.90;;;;;;5029128;28;20094;-81
2022/02/18 01:45:49;;;;;;;20.52;3.42;;;12.40;99.90;;;;;;5028936;28;20038;-83
2022/02/18 01:48:18;;;;;;;24.15;3.63;;;;;;;;;;5022636;28;20226;-81
2022/02/18 01:50:44;;;;;;;19.00;3.72;;;9.60;99.90;;;;;;5028973;28;20766;-81
2022/02/18 01:53:12;;;;;;;14.98;3.60;;;;;;;;;;5025317;28;20583;-80
2022/02/18 01:55:41;;;;;;;22.55;3.67;;;9.60;99.90;;;;;;5024144;28;20025;-82
2022/02/18 01:58:07;;;;;;;15.57;3.05;;;;;;;;;;5021629;28;20644;-79
2022/02/18 02:00:48;;;;;;;15.70;2.95;;;9.60;99.90;;;;;;5021647;28;20029;-84
2022/02/18 02:03:14;;;;;;;23.23;3.20;;;;;;;;;;5036006;28;20033;-81
2022/02/18 02:06:17;;;;;;;20.10;3.05;;;9.60;99.90;;;;;;5024110;28;20037;-85
2022/02/18 02:08:43;;;;;;;22.60;3.03;;;9.60;99.90;;;;;;5037801;28;20034;-83
2022/02/18 02:11:09;;;;;;;20.90;3.30;;;9.50;99.90;;;;;;5036417;28;20068;-82
2022/02/18 02:13:44;;;;;;;19.58;3.67;;;9.60;99.90;;;;;;5027215;28;20065;-84
2022/02/18 02:16:13;;;;;;;16.83;4.18;;;9.60;99.90;;;;;;5032496;28;20337;-80
2022/02/18 02:18:39;;;;;;;20.63;3.78;;;;;;;;;;5029889;28;20228;-84
2022/02/18 02:21:05;;;;;;;15.82;3.35;;;;;;;;;;5027306;28;20030;-80
2022/02/18 02:23:30;;;;;;;18.75;3.72;;;9.60;99.90;;;;;;5022114;28;20041;-83
2022/02/18 02:25:57;;;;;;;20.45;3.85;;;;;;;;;;5020974;28;20026;-83
2022/02/18 02:28:23;;;;;;;22.65;5.88;;;9.60;99.90;;;;;;5025868;28;20032;-80
2022/02/18 02:30:49;;;;;;;18.77;3.22;;;9.60;99.90;;;;;;5029771;28;20527;-80
2022/02/18 02:33:14;;;;;;;14.35;3.72;;;9.70;99.90;;;;;;5026250;28;20053;-84
2022/02/18 02:35:40;;;;;;;16.70;3.45;;;9.50;99.90;;;;;;5023866;28;20036;-82
2022/02/18 02:38:06;;;;;;;21.45;4.13;;;10.10;99.90;;;;;;5025691;28;20030;-82
2022/02/18 02:40:32;;;;;;;17.92;3.13;;;9.60;99.90;;;;;;5024182;28;20029;-83
2022/02/18 02:42:58;;;;;;;16.02;3.45;;;9.50;99.90;;;;;;5023321;28;20056;-81
2022/02/18 02:45:24;;;;;;;22.48;3.35;;;12.50;99.90;;;;;;5020393;28;20565;-84
2022/02/18 02:47:50;;;;;;;18.70;3.80;;;9.60;99.90;;;;;;5024809;28;20089;-81
2022/02/18 02:50:16;;;;;;;16.67;3.55;;;;;;;;;;5027254;28;20094;-82
2022/02/18 02:52:42;;;;;;;19.55;3.30;;;;;;;;;;5026772;28;20034;-81
2022/02/18 02:55:10;;;;;;;23.80;5.60;;;;;;;;;;5026624;28;20021;-83
2022/02/18 02:57:37;;;;;;;19.00;3.28;;;;;;;;;;5029909;28;20094;-81
2022/02/18 03:00:05;;;;;;;14.63;3.15;;;9.40;99.90;;;;;;5023966;28;20049;-82
2022/02/18 03:02:31;;;;;;;14.45;3.42;;;;;;;;;;5024780;28;20034;-80
2022/02/18 03:04:59;;;;;;;22.08;3.78;;;;;;;;;;5021014;28;23308;-82
2022/02/18 03:07:25;;;;;;;16.48;3.55;;;;;;;;;;5023094;28;20034;-81
2022/02/18 03:09:51;;;;;;;17.30;3.47;;;9.50;99.90;;;;;;5016900;28;20081;-82
2022/02/18 03:12:17;;;;;;;19.35;3.30;;;9.50;99.90;;;;;;5021773;28;20084;-82
2022/02/18 03:14:43;;;;;;;18.30;3.45;;;;;;;;;;5036622;28;20029;-84
2022/02/18 03:17:08;;;;;;;17.15;3.20;;;9.50;99.90;;;;;;5032685;28;20021;-82
2022/02/18 03:19:34;;;;;;;20.42;4.40;;;9.50;99.90;;;;;;5019101;28;20026;-83
2022/02/18 03:22:00;;;;;;;17.73;3.58;;;9.50;99.90;;;;;;5038427;28;20193;-83
2022/02/18 03:24:25;;;;;;;17.00;2.92;;;9.50;99.90;;;;;;5017952;28;20098;-81
2022/02/18 03:26:51;;;;;;;15.93;3.20;;;;;;;;;;5027924;28;20033;-84
2022/02/18 03:29:17;;;;;;;16.98;4.05;;;9.40;99.90;;;;;;5027204;28;20529;-81
2022/02/18 03:31:43;;;;;;;19.67;3.10;;;9.30;99.90;;;;;;5025938;28;20061;-81
2022/02/18 03:34:08;;;;;;;16.15;3.17;;;9.30;99.90;;;;;;5024745;28;20024;-81
2022/02/18 03:36:36;;;;;;;23.08;3.83;;;9.30;99.90;;;;;;5023653;28;20040;-86
2022/02/18 03:39:03;;;;;;;14.02;2.78;;;9.30;99.90;;;;;;5024507;28;20030;-81
2022/02/18 03:41:30;;;;;;;18.88;2.92;;;9.30;99.90;;;;;;5024319;28;20029;-80
2022/02/18 03:43:57;;;;;;;14.00;3.28;;;10.60;99.90;;;;;;5015881;28;20124;-80
2022/02/18 03:46:23;;;;;;;17.52;2.78;;;9.30;99.90;;;;;;5040197;28;20026;-80
2022/02/18 03:48:49;;;;;;;22.90;2.95;;;9.30;99.90;;;;;;5025351;28;20026;-80
2022/02/18 03:51:14;;;;;;;19.42;2.83;;;9.30;99.90;;;;;;5021058;28;20145;-79
2022/02/18 03:53:40;;;;;;;20.25;3.35;;;9.30;99.90;;;;;;5019288;28;20428;-80
2022/02/18 03:56:06;;;;;;;25.63;4.40;;;9.50;99.90;;;;;;5015929;28;20570;-79
2022/02/18 04:02:27;;;;;;;23.83;3.72;;;;;;;;;;4929125;28;20625;-79
2022/02/18 04:04:53;;;;;;;20.90;3.63;;;9.40;99.90;;;;;;4944390;28;20441;-82
2022/02/18 04:07:19;;;;;;;16.77;3.03;;;9.40;99.90;;;;;;4986030;28;20418;-78
2022/02/18 04:09:45;;;;;;;18.17;3.45;;;9.30;99.90;;;;;;5033642;28;20036;-80
2022/02/18 04:12:10;;;;;;;16.70;2.63;;;9.30;99.90;;;;;;5019505;28;20084;-79
2022/02/18 04:14:39;;;;;;;19.20;3.42;;;9.30;99.90;;;;;;5018854;28;20464;-78
2022/02/18 04:17:05;;;;;;;18.17;3.85;;;9.20;99.90;;;;;;5016249;28;20061;-80
2022/02/18 04:19:30;;;;;;;24.40;4.35;;;9.20;99.90;;;;;;5039799;28;20029;-80
2022/02/18 04:21:56;;;;;;;14.30;3.42;;;9.20;99.90;;;;;;5028077;28;20483;-79
2022/02/18 04:24:22;;;;;;;20.83;3.72;;;10.10;99.90;;;;;;5017264;28;20036;-82
2022/02/18 04:26:47;;;;;;;17.45;3.35;;;9.10;99.90;;;;;;5019017;28;20022;-80
2022/02/18 04:29:13;;;;;;;15.75;3.72;;;9.00;99.90;;;;;;5018218;28;20018;-82
2022/02/18 04:31:38;;;;;;;22.92;3.45;;;9.00;99.90;;;;;;5025414;28;20471;-79
2022/02/18 04:34:04;;;;;;;15.95;3.20;;;10.30;99.90;;;;;;5029576;28;20026;-78
2022/02/18 04:36:30;;;;;;;17.95;3.70;;;9.10;99.90;;;;;;5028989;28;20089;-81
2022/02/18 04:38:58;;;;;;;15.73;2.80;;;9.10;99.90;;;;;;5025324;28;20034;-82
2022/02/18 04:41:24;;;;;;;21.27;3.45;;;9.10;99.90;;;;;;5022693;28;20049;-82
2022/02/18 04:43:50;;;;;;;21.60;3.92;;;10.20;99.90;;;;;;5022449;28;20060;-82
2022/02/18 04:46:16;;;;;;;17.23;4.10;;;9.20;99.90;;;;;;5020873;28;20030;-83
2022/02/18 04:48:42;;;;;;;18.83;3.63;;;10.50;99.90;;;;;;5027915;28;20556;-81
2022/02/18 04:51:07;;;;;;;16.67;3.65;;;10.50;99.90;;;;;;5023318;28;20069;-81
2022/02/18 04:53:33;;;;;;;17.35;3.53;;;;;;;;;;5021335;28;20057;-80
2022/02/18 04:56:04;;;;;;;16.30;2.75;;;9.00;99.90;;;;;;5025155;28;20032;-77
2022/02/18 04:58:30;;;;;;;15.55;3.22;;;9.10;99.90;;;;;;5024883;28;20029;-79
2022/02/18 05:00:56;;;;;;;13.85;3.08;;;9.10;99.90;;;;;;5024753;28;20085;-79
2022/02/18 05:03:21;;;;;;;18.08;2.65;;;9.10;99.90;;;;;;5026135;28;20053;-78
2022/02/18 05:05:47;;;;;;;17.17;3.28;;;10.60;99.90;;;;;;5024266;28;20087;-79
2022/02/18 05:08:13;;;;;;;16.23;3.22;;;9.10;99.90;;;;;;5020513;28;20029;-80
2022/02/18 05:10:38;;;;;;;14.80;2.75;;;9.10;99.90;;;;;;5017734;28;20045;-79
2022/02/18 05:13:04;;;;;;;19.70;3.15;;;9.00;99.90;;;;;;5016444;28;20026;-80
2022/02/18 05:15:30;;;;;;;15.80;2.97;;;9.00;99.90;;;;;;5018074;28;20022;-78
2022/02/18 05:17:59;;;;;;;18.55;3.90;;;9.00;99.90;;;;;;5015326;28;20537;-79
2022/02/18 05:20:28;;;;;;;11.98;2.63;;;9.00;99.90;;;;;;5018818;28;20037;-79
2022/02/18 05:22:54;;;;;;;15.68;2.70;;;9.20;99.90;;;;;;5029757;28;20433;-79
2022/02/18 05:25:19;;;;;;;20.92;2.88;;;9.20;99.90;;;;;;5022576;28;20041;-77
2022/02/18 05:27:47;;;;;;;16.77;3.40;;;9.10;99.90;;;;;;5023684;28;20034;-81
2022/02/18 05:30:16;;;;;;;17.08;3.00;;;;;;;;;;5023697;28;20021;-79
2022/02/18 05:32:41;;;;;;;17.77;3.50;;;9.10;99.90;;;;;;5011118;28;20049;-79
2022/02/18 05:35:07;;;;;;;14.45;3.33;;;9.90;99.90;;;;;;5016256;28;20018;-80
2022/02/18 05:37:33;;;;;;;15.10;3.22;;;9.00;99.90;;;;;;5016263;28;20052;-78
2022/02/18 05:39:58;;;;;;;17.95;3.97;;;9.00;99.90;;;;;;5021772;28;20341;-81
2022/02/18 05:42:24;;;;;;;18.60;3.42;;;9.00;99.90;;;;;;5023169;28;20386;-79
2022/02/18 05:44:49;;;;;;;15.38;3.42;;;8.90;99.90;;;;;;5020653;28;20026;-80
2022/02/18 05:47:15;;;;;;;15.23;3.05;;;8.80;99.90;;;;;;5022878;28;20525;-79
2022/02/18 05:49:41;;;;;;;18.27;3.03;;;9.00;99.90;;;;;;5019303;28;20411;-79
2022/02/18 05:52:07;;;;;;;16.92;3.20;;;9.00;99.90;;;;;;5015672;28;20029;-81
2022/02/18 05:54:33;;;;;;;13.77;2.90;;;;;;;;;;5015025;28;20025;-82
2022/02/18 05:56:59;;;;;;;16.58;3.13;;;9.10;99.90;;;;;;5012740;28;20348;-79
2022/02/18 05:59:25;;;;;;;17.42;3.03;;;9.30;99.90;;;;;;5013761;28;20028;-80
2022/02/18 06:01:51;;;;;;;11.20;2.83;;;;;;;;;;5010011;28;20025;-75
2022/02/18 06:04:17;;;;;;;11.75;2.67;;;9.10;99.90;;;;;;5022892;28;20034;-80
2022/02/18 06:06:44;;;;;;;13.68;3.42;;;9.10;99.90;;;;;;5017285;28;20033;-81
2022/02/18 06:09:10;;;;;;;13.48;2.60;;;9.10;99.90;;;;;;5019476;28;20018;-81
2022/02/18 06:11:37;;;;;;;14.35;2.60;;;9.00;99.90;;;;;;5027125;28;20112;-80
2022/02/18 06:14:03;;;;;;;14.95;2.75;;;8.90;99.90;;;;;;5026426;28;20036;-79
2022/02/18 06:16:29;;;;;;;12.55;3.13;;;10.20;99.90;;;;;;5023363;28;20037;-80
2022/02/18 06:18:55;;;;;;;14.10;2.80;;;8.80;99.90;;;;;;5027576;28;20026;-79
2022/02/18 06:21:20;;;;;;;10.27;2.33;;;8.80;99.90;;;;;;5030406;28;20030;-80
2022/02/18 06:23:46;;;;;;;12.05;2.10;;;8.80;99.90;;;;;;5025423;28;20077;-78
2022/02/18 06:26:12;;;;;;;7.78;1.88;;;8.80;99.90;;;;;;5028747;28;20034;-80
2022/02/18 06:28:39;;;;;;;12.13;3.15;;;8.70;99.90;;;;;;5026731;28;20029;-77
2022/02/18 06:31:05;;;;;;;10.45;2.63;;;8.80;99.90;;;;;;5026741;28;20039;-79
2022/02/18 06:33:31;;;;;;;11.23;2.40;;;;;;;;;;5036236;28;20454;-82
2022/02/18 06:35:56;;;;;;;10.70;2.15;;;8.80;99.90;;;;;;5034954;28;20025;-81
2022/02/18 06:38:22;;;;;;;9.52;2.42;;;9.20;99.90;;;;;;5028805;28;20442;-80
2022/02/18 06:40:48;;;;;;;11.23;2.60;;;9.00;99.90;;;;;;5023649;28;20026;-79
2022/02/18 06:43:13;;;;;;;8.20;1.83;;;9.00;99.90;;;;;;5030874;28;20022;-79
2022/02/18 06:45:39;;;;;;;8.30;2.60;;;9.00;99.90;;;;;;5027966;28;20037;-79
2022/02/18 06:48:07;;;;;;;7.32;2.13;;;9.20;99.90;;;;;;5025515;28;20029;-80
2022/02/18 06:50:35;;;;;;;7.72;2.40;;;9.30;99.90;;;;;;5030768;28;20423;-79
2022/02/18 06:53:01;;;;;;;7.40;2.35;;;10.40;99.90;;;;;;5023037;28;20036;-76
2022/02/18 06:55:26;;;;;;;15.30;2.67;;;9.10;99.90;;;;;;5024095;28;20660;-79
2022/02/18 06:57:54;;;;;;;12.07;4.22;;;9.10;99.90;;;;;;5020966;28;20033;-76
2022/02/18 07:00:20;;;;;;;10.02;2.28;;;9.20;99.90;;;;;;5021724;28;20030;-77
2022/02/18 07:02:46;;;;;;;11.18;2.90;;;9.20;99.90;;;;;;5024157;28;20026;-79
2022/02/18 07:05:13;;;;;;;12.20;3.25;;;9.20;99.90;;;;;;5016944;28;20037;-80
2022/02/18 07:07:39;;;;;;;11.88;3.08;;;9.20;99.90;;;;;;5025794;28;20392;-81
2022/02/18 07:10:07;;;;;;;10.80;3.10;;;9.30;99.90;;;;;;5020504;28;20053;-80
2022/02/18 07:12:33;;;;;;;9.20;2.83;;;9.30;99.90;;;;;;5022393;28;20303;-80
2022/02/18 07:14:59;;;;;;;6.75;2.60;;;9.40;99.90;;;;;;5017937;28;20120;-80
2022/02/18 07:17:26;;;;;;;6.80;2.58;;;9.40;99.90;;;;;;5020275;28;20026;-77
2022/02/18 07:19:53;;;;;;;8.45;2.85;;;9.50;99.90;;;;;;5019140;28;20035;-79
2022/02/18 07:22:19;;;;;;;5.88;2.58;;;9.50;99.90;;;;;;5024105;28;20112;-79
2022/02/18 07:24:45;;;;;;;8.07;2.60;;;9.50;99.90;;;;;;5022428;28;20068;-80
2022/02/18 07:27:11;;;;;;;9.48;2.80;;;9.50;99.90;;;;;;5031880;28;20029;-77
2022/02/18 07:29:37;;;;;;;9.48;2.83;;;9.60;99.90;;;;;;5020192;28;20172;-79
2022/02/18 07:32:03;;;;;;;5.95;2.58;;;;;;;;;;5014532;28;20097;-79
2022/02/18 07:34:29;;;;;;;7.57;2.53;;;9.70;99.90;;;;;;5019641;28;20029;-79
2022/02/18 07:36:55;;;;;;;8.63;2.80;;;;;;;;;;5022407;28;20095;-80
2022/02/18 07:39:20;;;;;;;7.90;3.08;;;9.70;99.90;;;;;;5018747;28;20057;-79
2022/02/18 07:41:46;;;;;;;8.52;3.58;;;;;;;;;;5021096;28;20032;-81
2022/02/18 07:44:12;;;;;;;9.13;3.28;;;9.80;99.90;;;;;;5026552;28;20030;-80
2022/02/18 07:46:38;;;;;;;4.68;3.22;;;11.70;99.90;;;;;;5020505;28;20025;-83
2022/02/18 07:49:03;;;;;;;5.28;2.70;;;12.80;99.90;;;;;;5021144;28;20032;-78
2022/02/18 07:51:29;;;;;;;7.22;3.03;;;9.90;99.90;;;;;;5022428;28;20520;-77
2022/02/18 07:53:55;;;;;;;8.35;2.83;;;10.90;99.90;;;;;;5021754;28;20034;-80
2022/02/18 07:56:21;;;;;;;7.30;2.78;;;10.00;99.90;;;;;;5020888;28;20025;-79
2022/02/18 07:58:51;;;;;;;4.35;2.75;;;10.10;99.90;;;;;;4989588;28;20032;-77
2022/02/18 08:01:20;;;;;;;;;;;10.10;99.90;;;;;;5020682;28;20085;-80
2022/02/18 08:03:47;;;;;;;8.55;2.80;;;10.10;99.90;;;;;;5011298;28;19945;-80
2022/02/18 08:06:13;;;;;;;8.20;2.60;;;10.10;99.90;;;;;;5039797;28;20025;-79
2022/02/18 08:08:42;;;;;;;4.40;2.38;;;;;;;;;;5026988;28;20067;-80
2022/02/18 08:11:09;;;;;;;5.53;2.72;;;10.30;99.90;;;;;;5012940;28;20025;-79
2022/02/18 08:13:35;;;;;;;4.65;2.20;;;10.30;99.90;;;;;;5028276;28;20021;-79
2022/02/18 08:16:00;;;;;;;4.70;2.10;;;10.50;99.90;;;;;;5034858;28;20096;-78
2022/02/18 08:18:26;;;;;;;5.55;2.30;;;;;;;;;;5024243;28;20103;-75
2022/02/18 08:20:52;;;;;;;5.60;2.63;;;;;;;;;;5039195;28;20113;-80
2022/02/18 08:23:19;;;;;;;3.42;1.90;;;;;;;;;;5025650;28;20090;-79
2022/02/18 08:25:45;;;;;;;7.18;2.97;;;;;;;;;;5028427;28;20495;-79
2022/02/18 08:28:11;;;;;;;5.65;2.25;;;;;;;;;;5025186;28;20092;-81
2022/02/18 08:30:37;;;;;;;5.22;2.38;;;10.60;99.90;;;;;;5031554;28;20033;-79
2022/02/18 08:33:02;;;;;;;5.20;2.10;;;12.10;99.90;;;;;;5025841;28;20033;-81
2022/02/18 08:35:28;;;;;;;4.07;2.00;;;12.20;99.90;;;;;;5030609;28;20029;-78
2022/02/18 08:37:55;;;;;;;4.75;2.10;;;10.70;99.90;;;;;;5029807;28;20026;-79
2022/02/18 08:40:21;;;;;;;5.00;2.50;;;10.80;99.90;;;;;;5036353;28;20030;-80
2022/02/18 08:42:47;;;;;;;4.40;2.22;;;10.90;99.90;;;;;;5031180;28;20030;-79
2022/02/18 08:45:12;;;;;;;4.47;1.73;;;10.90;99.90;;;;;;5032444;28;20093;-82
2022/02/18 08:47:38;;;;;;;6.07;2.13;;;11.00;99.90;;;;;;5027547;28;20030;-81
2022/02/18 08:50:06;;;;;;;2.80;1.90;;;11.50;99.90;;;;;;5021798;28;20176;-79
2022/02/18 08:52:32;;;;;;;5.38;2.25;;;11.00;99.90;;;;;;5031101;28;20029;-77
2022/02/18 08:54:57;;;;;;;5.03;2.35;;;13.80;99.90;;;;;;5028382;28;20037;-79
2022/02/18 08:57:23;;;;;;;4.03;2.00;;;11.10;99.90;;;;;;5042625;28;20025;-80
2022/02/18 08:59:49;;;;;;;4.47;2.60;;;11.30;99.90;;;;;;5027124;28;20034;-80
2022/02/18 09:02:14;;;;;;;4.63;1.90;;;12.20;99.90;;;;;;5012145;28;20029;-80
2022/02/18 09:04:40;;;;;;;4.95;1.92;;;11.30;99.90;;;;;;5019994;28;20407;-82
2022/02/18 09:07:06;;;;;;;4.47;2.10;;;12.70;99.90;;;;;;5020238;28;20029;-80
2022/02/18 09:09:32;;;;;;;6.40;1.70;;;11.40;99.90;;;;;;5023377;28;20030;-81
2022/02/18 09:11:58;;;;;;;8.25;2.00;;;;;;;;;;5017310;28;20510;-80
2022/02/18 09:14:24;;;;;;;6.30;2.00;;;;;;;;;;5025882;28;20018;-79
2022/02/18 09:16:52;;;;;;;6.53;2.13;;;;;;;;;;5021207;28;20030;-81
2022/02/18 09:19:18;;;;;;;5.30;1.80;;;11.60;99.90;;;;;;5019482;28;20026;-80
2022/02/18 09:21:43;;;;;;;5.40;1.60;;;11.60;99.90;;;;;;5022032;28;20117;-80
2022/02/18 09:24:09;;;;;;;4.22;1.45;;;;;;;;;;5026250;28;20120;-80
2022/02/18 09:26:35;;;;;;;4.22;1.58;;;11.60;99.90;;;;;;5020067;28;20987;-80
2022/02/18 09:29:01;;;;;;;4.00;1.42;;;11.70;99.90;;;;;;5020937;28;20057;-81
2022/02/18 09:31:27;;;;;;;5.85;2.00;;;12.60;99.90;;;;;;5026952;28;20506;-82
2022/02/18 09:33:52;;;;;;;2.90;1.50;;;12.00;99.90;;;;;;5023776;28;20029;-79
2022/02/18 09:36:18;;;;;;;4.20;1.23;;;14.00;99.90;;;;;;5021242;28;20035;-79
2022/02/18 09:38:44;;;;;;;5.53;1.90;;;14.70;99.90;;;;;;5018275;28;20657;-80
2022/02/18 09:41:10;;;;;;;2.25;1.25;;;12.10;99.90;;;;;;5023360;28;20098;-77
2022/02/18 09:43:40;;;;;;;2.60;1.30;;;12.00;99.90;;;;;;5018665;28;20100;-75
2022/02/18 09:46:06;;;;;;;;;;;12.10;99.90;;;;;;5029600;28;20041;-80
2022/02/18 09:48:33;;;;;;;2.75;1.08;;;12.20;99.90;;;;;;5016668;28;19917;-78
2022/02/18 09:51:00;;;;;;;3.05;1.15;;;;;;;;;;5017695;28;20038;-82
2022/02/18 09:53:26;;;;;;;2.20;1.65;;;12.40;99.90;;;;;;5025152;28;20519;-82
2022/02/18 09:55:55;;;;;;;2.35;1.40;;;12.40;99.90;;;;;;5020382;28;20021;-80
2022/02/18 09:58:22;;;;;;;3.92;1.30;;;12.40;99.90;;;;;;5021197;28;21861;-84
2022/02/18 10:00:49;;;;;;;3.65;1.40;;;12.50;99.90;;;;;;5024435;28;20033;-82
2022/02/18 10:03:15;;;;;;;4.60;1.33;;;12.50;99.90;;;;;;5025784;28;20032;-81
2022/02/18 10:05:41;;;;;;;3.35;1.35;;;;;;;;;;5028512;28;20025;-77
2022/02/18 10:08:10;;;;;;;3.15;1.10;;;12.60;99.90;;;;;;5024960;28;20076;-80
2022/02/18 10:10:40;;;;;;;2.00;1.08;;;12.60;99.90;;;;;;5026127;28;20172;-79
2022/02/18 10:13:42;;;;;;;2.85;1.25;;;12.50;99.90;;;;;;5027492;28;20037;-77
2022/02/18 10:16:19;;;;;;;2.63;1.23;;;12.50;99.90;;;;;;5028803;28;20030;-77
2022/02/18 10:18:55;;;;;;;2.92;1.30;;;12.50;99.90;;;;;;5027398;28;20032;-77
2022/02/18 10:21:24;;;;;;;3.58;1.30;;;12.50;99.90;;;;;;5018284;28;20028;-81
2022/02/18 10:23:51;;;;;;;2.47;1.35;;;12.60;99.90;;;;;;5024631;28;20125;-81
2022/02/18 10:26:33;;;;;;;2.28;1.15;;;12.50;99.90;;;;;;5023968;28;20479;-78
2022/02/18 10:28:58;;;;;;;2.08;1.33;;;12.40;99.90;;;;;;5032657;28;20029;-79
2022/02/18 10:31:24;;;;;;;4.13;1.40;;;12.50;99.90;;;;;;5033601;28;20065;-80
2022/02/18 10:34:10;;;;;;;4.32;1.92;;;15.40;99.90;;;;;;5027444;28;20034;-79
2022/02/18 10:36:44;;;;;;;7.32;3.13;;;12.50;99.90;;;;;;5017859;28;20036;-78
2022/02/18 10:39:25;;;;;;;2.78;1.27;;;12.60;99.90;;;;;;5033666;28;20121;-80
2022/02/18 10:41:53;;;;;;;3.05;1.30;;;12.60;99.90;;;;;;5027995;28;20061;-80
2022/02/18 10:44:18;;;;;;;4.55;1.23;;;12.60;99.90;;;;;;5026573;28;20045;-80
2022/02/18 10:46:45;;;;;;;3.05;1.10;;;12.60;99.90;;;;;;5027689;28;20037;-80
2022/02/18 10:49:23;;;;;;;1.40;1.10;;;12.70;99.90;;;;;;5025615;28;20467;-79
2022/02/18 10:51:52;;;;;;;2.45;0.98;;;;;;;;;;5030958;28;20069;-82
2022/02/18 10:54:27;;;;;;;1.35;0.70;;;12.80;99.90;;;;;;5021646;28;20034;-81
2022/02/18 10:57:14;;;;;;;1.35;0.77;;;12.70;99.90;;;;;;5027353;28;20022;-80
2022/02/18 10:59:40;;;;;;;1.08;0.57;;;;;;;;;;5028925;28;20649;-81
2022/02/18 11:02:06;;;;;;;5.03;2.03;;;12.90;99.90;;;;;;5027471;28;20116;-80
2022/02/18 11:04:32;;;;;;;1.80;0.80;;;12.90;99.90;;;;;;5021671;28;20029;-79
2022/02/18 11:07:10;;;;;;;2.58;0.40;;;12.90;99.90;;;;;;5022982;28;20034;-78
2022/02/18 11:09:36;;;;;;;2.00;0.68;;;12.90;99.90;;;;;;5024163;28;20068;-80
2022/02/18 11:12:07;;;;;;;0.68;0.57;;;12.80;99.90;;;;;;5020959;28;20044;-75
2022/02/18 11:14:34;;;;;;;0.82;0.60;;;;;;;;;;5018579;28;20017;-79
2022/02/18 11:17:00;;;;;;;1.58;0.70;;;;;;;;;;5020902;28;20475;-80
2022/02/18 11:19:25;;;;;;;0.93;0.65;;;12.90;99.90;;;;;;5023809;28;20021;-81
2022/02/18 11:21:51;;;;;;;0.85;0.52;;;12.80;99.90;;;;;;5024351;28;20119;-79
2022/02/18 11:24:18;;;;;;;1.73;0.70;;;12.80;99.90;;;;;;5020827;28;20030;-78
2022/02/18 11:26:44;;;;;;;2.03;0.98;;;12.80;99.90;;;;;;5022734;28;20036;-80
2022/02/18 11:29:12;;;;;;;2.55;0.70;;;12.90;99.90;;;;;;5019298;28;20030;-81
2022/02/18 11:31:39;;;;;;;1.00;0.52;;;13.00;99.90;;;;;;5019468;28;20028;-79
2022/02/18 11:34:24;;;;;;;0.70;0.60;;;13.00;99.90;;;;;;5023616;28;20091;-79
2022/02/18 11:37:12;;;;;;;1.55;0.70;;;13.00;99.90;;;;;;5022158;28;20017;-77
2022/02/18 11:39:43;;;;;;;1.63;0.70;;;13.00;99.90;;;;;;5021403;28;20029;-80
2022/02/18 11:42:09;;;;;;;1.08;0.68;;;;;;;;;;5024488;28;20467;-80
2022/02/18 11:44:36;;;;;;;0.60;0.60;;;13.00;99.90;;;;;;5020615;28;20044;-79
2022/02/18 11:47:15;;;;;;;1.65;0.70;;;13.00;99.90;;;;;;5022734;28;20083;-80
2022/02/18 11:49:42;;;;;;;0.90;0.55;;;13.00;99.90;;;;;;5022605;28;20036;-82
2022/02/18 11:52:10;;;;;;;2.17;0.82;;;13.00;99.90;;;;;;5013559;28;20075;-80
2022/02/18 11:54:36;;;;;;;1.13;0.60;;;13.00;99.90;;;;;;5024452;28;20041;-80
2022/02/18 11:57:08;;;;;;;2.78;0.85;;;13.00;99.90;;;;;;5025391;28;20063;-81
2022/02/18 11:59:49;;;;;;;1.75;0.80;;;13.00;99.90;;;;;;5016875;28;20025;-77
2022/02/18 12:02:15;;;;;;;1.42;0.80;;;;;;;;;;5021469;28;20086;-80
2022/02/18 12:04:41;;;;;;;1.60;0.80;;;;;;;;;;5023094;28;20029;-78
2022/02/18 12:07:28;;;;;;;1.48;0.90;;;13.00;99.90;;;;;;5023502;28;20106;-80
2022/02/18 12:09:59;;;;;;;2.13;0.90;;;12.90;99.90;;;;;;5022758;28;20033;-77
2022/02/18 12:12:36;;;;;;;1.23;0.65;;;13.00;99.90;;;;;;5024021;28;20026;-79
2022/02/18 12:15:14;;;;;;;1.83;0.93;;;13.00;99.90;;;;;;5024680;28;20034;-81
2022/02/18 12:17:50;;;;;;;2.95;1.00;;;12.90;99.90;;;;;;5027302;28;20062;-82
2022/02/18 12:20:27;;;;;;;1.85;0.90;;;12.90;99.90;;;;;;5016794;28;20043;-83
2022/02/18 12:22:53;;;;;;;2.58;1.00;;;12.90;99.90;;;;;;5024797;28;20030;-80
2022/02/18 12:25:23;;;;;;;4.07;1.50;;;12.90;99.90;;;;;;5020824;28;20025;-77
2022/02/18 12:27:51;;;;;;;3.25;1.08;;;12.90;99.90;;;;;;5025451;28;20495;-78
2022/02/18 12:30:22;;;;;;;1.45;0.90;;;12.90;99.90;;;;;;5021903;28;20041;-79
2022/02/18 12:32:58;;;;;;;2.03;1.08;;;12.80;99.90;;;;;;5024970;28;20677;-83
2022/02/18 12:35:28;;;;;;;2.45;1.00;;;12.80;99.90;;;;;;5036484;28;20033;-81
2022/02/18 12:37:58;;;;;;;3.22;0.85;;;12.90;99.90;;;;;;5025633;28;20021;-81
2022/02/18 12:40:24;;;;;;;1.67;0.93;;;12.90;99.90;;;;;;5017874;28;20105;-81
2022/02/18 12:42:57;;;;;;;2.67;0.90;;;13.50;99.90;;;;;;5023336;28;20029;-80
2022/02/18 12:45:39;;;;;;;1.75;0.88;;;13.60;99.90;;;;;;5020177;28;20083;-78
2022/02/18 12:48:05;;;;;;;2.08;1.02;;;12.90;99.90;;;;;;5023060;28;20168;-81
2022/02/18 12:50:37;;;;;;;1.45;0.80;;;12.90;99.90;;;;;;5027427;28;20527;-79
2022/02/18 12:53:03;;;;;;;2.15;0.90;;;12.80;99.90;;;;;;5021312;28;20083;-80
2022/02/18 12:55:33;;;;;;;2.10;0.85;;;12.70;99.90;;;;;;5024216;28;20068;-82
2022/02/18 12:57:58;;;;;;;2.45;0.80;;;12.70;99.90;;;;;;5025237;28;20112;-77
2022/02/18 13:00:26;;;;;;;3.10;1.00;;;12.70;99.90;;;;;;5022612;28;20034;-78
2022/02/18 13:02:53;;;;;;;2.30;1.08;;;;;;;;;;5022893;28;20036;-80
2022/02/18 13:05:24;;;;;;;2.72;0.73;;;12.90;99.90;;;;;;5023095;28;20022;-81
2022/02/18 13:07:54;;;;;;;1.60;0.90;;;12.90;99.90;;;;;;5028912;28;20029;-80
2022/02/18 13:10:23;;;;;;;3.40;1.20;;;12.90;99.90;;;;;;5019687;28;20044;-79
2022/02/18 13:12:51;;;;;;;3.78;1.00;;;12.90;99.90;;;;;;5024310;28;20068;-79